createdAt,value
2022-10-13T00:00:09.557Z,4.00
2022-10-13T00:02:35.843Z,4.03
2022-10-13T00:05:02.699Z,4.28
2022-10-13T00:07:29.040Z,4.20
2022-10-13T00:09:55.473Z,3.92
2022-10-13T00:12:22.039Z,4.43
2022-10-13T00:14:48.331Z,4.28
2022-10-13T00:17:14.730Z,4.13
2022-10-13T00:19:41.136Z,3.90
2022-10-13T00:22:07.554Z,4.20
2022-10-13T00:24:34.075Z,3.85
2022-10-13T00:27:00.401Z,3.90
2022-10-13T00:29:26.823Z,4.07
2022-10-13T00:31:53.176Z,4.15
2022-10-13T00:34:19.467Z,4.80
2022-10-13T00:36:45.775Z,4.80
2022-10-13T00:39:12.279Z,4.30
2022-10-13T00:41:39.005Z,4.25
2022-10-13T00:44:05.326Z,3.83
2022-10-13T00:46:31.691Z,4.63
2022-10-13T00:48:57.987Z,4.47
2022-10-13T00:51:24.305Z,4.38
2022-10-13T00:53:50.876Z,4.32
2022-10-13T00:56:17.362Z,4.57
2022-10-13T00:58:43.799Z,3.50
2022-10-13T01:01:10.107Z,4.25
2022-10-13T01:03:36.536Z,4.25
2022-10-13T01:06:02.956Z,4.47
2022-10-13T01:08:29.265Z,4.53
2022-10-13T01:10:55.757Z,4.38
2022-10-13T01:13:22.230Z,4.55
2022-10-13T01:15:48.695Z,4.25
2022-10-13T01:20:45.492Z,4.45
2022-10-13T01:23:12.362Z,4.80
2022-10-13T01:25:38.630Z,4.15
2022-10-13T01:28:04.975Z,4.53
2022-10-13T01:30:31.351Z,4.47
2022-10-13T01:32:57.725Z,4.30
2022-10-13T01:35:24.108Z,4.25
2022-10-13T01:37:50.449Z,4.47
2022-10-13T01:40:16.918Z,4.43
2022-10-13T01:42:43.254Z,4.80
2022-10-13T01:45:10.564Z,5.05
2022-10-13T01:47:36.814Z,4.80
2022-10-13T01:50:03.201Z,4.38
2022-10-13T01:52:29.768Z,4.50
2022-10-13T01:54:56.071Z,4.35
2022-10-13T01:57:22.456Z,4.85
2022-10-13T01:59:48.810Z,4.75
2022-10-13T02:02:15.184Z,5.30
2022-10-13T02:04:42.007Z,4.70
2022-10-13T02:07:08.383Z,4.47
2022-10-13T02:09:34.722Z,4.70
2022-10-13T02:12:01.059Z,4.40
2022-10-13T02:14:27.717Z,5.03
2022-10-13T02:16:54.015Z,4.43
2022-10-13T02:19:20.359Z,4.88
2022-10-13T02:21:46.839Z,4.95
2022-10-13T02:24:13.126Z,4.60
2022-10-13T02:26:39.458Z,4.20
2022-10-13T02:29:05.906Z,4.30
2022-10-13T02:31:32.368Z,4.38
2022-10-13T02:33:58.776Z,4.80
2022-10-13T02:36:25.107Z,4.25
2022-10-13T02:38:51.578Z,4.82
2022-10-13T02:41:18.655Z,4.63
2022-10-13T02:43:44.990Z,4.40
2022-10-13T02:46:11.591Z,4.90
2022-10-13T02:48:37.999Z,4.88
2022-10-13T02:51:04.352Z,4.60
2022-10-13T02:53:30.915Z,4.63
2022-10-13T02:55:57.289Z,4.80
2022-10-13T02:58:23.873Z,4.65
2022-10-13T03:00:50.244Z,4.85
2022-10-13T03:03:16.637Z,4.88
2022-10-13T03:05:42.941Z,4.70
2022-10-13T03:08:09.286Z,4.53
2022-10-13T03:10:35.735Z,4.72
2022-10-13T03:13:02.100Z,4.40
2022-10-13T03:15:28.449Z,4.57
2022-10-13T03:17:54.833Z,4.88
2022-10-13T03:20:21.372Z,4.50
2022-10-13T03:22:49.919Z,4.28
2022-10-13T03:25:16.507Z,4.80
2022-10-13T03:27:42.855Z,4.47
2022-10-13T03:30:09.303Z,5.47
2022-10-13T03:32:35.675Z,4.90
2022-10-13T03:35:02.064Z,5.00
2022-10-13T03:37:28.620Z,4.45
2022-10-13T03:39:54.995Z,4.60
2022-10-13T03:42:21.637Z,4.95
2022-10-13T03:44:52.368Z,4.90
2022-10-13T03:47:21.832Z,4.43
2022-10-13T03:49:48.163Z,4.90
2022-10-13T03:52:14.455Z,4.82
2022-10-13T03:54:40.783Z,5.07
2022-10-13T03:57:08.999Z,5.32
2022-10-13T03:59:36.990Z,4.78
2022-10-13T04:02:03.918Z,5.20
2022-10-13T04:04:30.422Z,5.05
2022-10-13T04:06:57.345Z,5.43
2022-10-13T04:09:23.659Z,5.15
2022-10-13T04:11:50.196Z,5.13
2022-10-13T04:14:16.521Z,4.60
2022-10-13T04:16:42.881Z,4.90
2022-10-13T04:19:09.695Z,5.00
2022-10-13T04:21:36.019Z,5.22
2022-10-13T04:24:02.459Z,4.97
2022-10-13T04:26:28.823Z,4.97
2022-10-13T04:28:55.282Z,5.20
2022-10-13T04:31:21.795Z,5.30
2022-10-13T04:33:48.124Z,5.45
2022-10-13T04:36:14.480Z,5.05
2022-10-13T04:38:40.900Z,5.05
2022-10-13T04:41:07.861Z,5.32
2022-10-13T04:43:34.432Z,5.43
2022-10-13T04:46:00.803Z,5.40
2022-10-13T04:48:27.155Z,4.97
2022-10-13T04:50:53.566Z,5.32
2022-10-13T04:53:19.977Z,4.97
2022-10-13T04:55:46.329Z,4.63
2022-10-13T04:58:12.930Z,5.22
2022-10-13T05:00:39.306Z,5.30
2022-10-13T05:03:05.661Z,5.40
2022-10-13T05:05:32.008Z,6.07
2022-10-13T05:07:58.303Z,5.60
2022-10-13T05:10:24.635Z,5.65
2022-10-13T05:12:51.003Z,5.35
2022-10-13T05:15:17.351Z,5.35
2022-10-13T05:17:43.915Z,5.38
2022-10-13T05:20:10.183Z,5.00
2022-10-13T05:22:36.528Z,5.22
2022-10-13T05:25:02.839Z,5.32
2022-10-13T05:27:29.684Z,5.60
2022-10-13T05:29:56.035Z,5.50
2022-10-13T05:32:22.884Z,5.57
2022-10-13T05:34:49.705Z,5.80
2022-10-13T05:37:17.255Z,6.60
2022-10-13T05:39:47.037Z,6.18
2022-10-13T05:42:15.071Z,6.75
2022-10-13T05:44:41.420Z,5.97
2022-10-13T05:47:07.904Z,6.35
2022-10-13T05:49:34.318Z,6.90
2022-10-13T05:52:01.455Z,6.78
2022-10-13T05:54:27.978Z,6.53
2022-10-13T05:56:54.354Z,6.32
2022-10-13T05:59:26.042Z,6.80
2022-10-13T06:01:53.688Z,6.22
2022-10-13T06:04:20.128Z,6.30
2022-10-13T06:06:46.613Z,6.57
2022-10-13T06:09:13.075Z,7.28
2022-10-13T06:11:39.525Z,6.03
2022-10-13T06:14:05.950Z,6.78
2022-10-13T06:16:32.784Z,7.22
2022-10-13T06:18:59.335Z,7.05
2022-10-13T06:21:25.776Z,6.57
2022-10-13T06:23:52.134Z,6.13
2022-10-13T06:26:18.555Z,6.57
2022-10-13T06:28:49.099Z,6.50
2022-10-13T06:31:16.934Z,6.30
2022-10-13T06:33:43.580Z,6.57
2022-10-13T06:36:10.159Z,6.72
2022-10-13T06:38:36.566Z,6.03
2022-10-13T06:41:02.869Z,7.22
2022-10-13T06:43:36.000Z,6.75
2022-10-13T06:46:06.381Z,6.97
2022-10-13T06:48:32.828Z,7.10
2022-10-13T06:50:59.317Z,6.82
2022-10-13T06:53:25.653Z,6.75
2022-10-13T06:55:52.723Z,6.63
2022-10-13T06:58:19.221Z,6.60
2022-10-13T07:00:45.732Z,6.82
2022-10-13T07:03:12.186Z,6.97
2022-10-13T07:05:38.504Z,6.75
2022-10-13T07:08:04.863Z,7.20
2022-10-13T07:10:31.262Z,7.05
2022-10-13T07:12:57.620Z,6.28
2022-10-13T07:15:23.948Z,7.00
2022-10-13T07:17:50.504Z,6.65
2022-10-13T07:20:16.818Z,7.20
2022-10-13T07:22:43.435Z,6.65
2022-10-13T07:25:09.776Z,7.35
2022-10-13T07:27:36.142Z,6.47
2022-10-13T07:30:02.600Z,6.70
2022-10-13T07:32:29.293Z,7.00
2022-10-13T07:34:55.699Z,6.05
2022-10-13T07:37:22.379Z,8.50
2022-10-13T07:39:49.077Z,7.28
2022-10-13T07:42:15.694Z,7.75
2022-10-13T07:44:42.175Z,6.90
2022-10-13T07:47:08.642Z,7.30
2022-10-13T07:49:35.119Z,7.03
2022-10-13T07:52:01.471Z,7.15
2022-10-13T07:54:27.878Z,7.18
2022-10-13T07:56:54.228Z,6.75
2022-10-13T07:59:20.624Z,7.05
2022-10-13T08:01:47.055Z,7.05
2022-10-13T08:04:13.494Z,7.45
2022-10-13T08:09:07.116Z,7.15
2022-10-13T08:11:33.456Z,6.78
2022-10-13T08:13:59.895Z,7.30
2022-10-13T08:16:26.216Z,7.30
2022-10-13T08:18:52.673Z,7.35
2022-10-13T08:24:05.790Z,7.43
2022-10-13T08:26:32.133Z,7.28
2022-10-13T08:29:16.533Z,7.90
2022-10-13T08:31:43.937Z,7.07
2022-10-13T08:34:10.541Z,6.90
2022-10-13T08:36:36.882Z,7.07
2022-10-13T08:39:03.630Z,7.65
2022-10-13T08:41:30.240Z,7.18
2022-10-13T08:44:40.925Z,7.35
2022-10-13T08:46:43.414Z,7.38
2022-10-13T08:49:09.851Z,8.38
2022-10-13T08:51:36.243Z,7.30
2022-10-13T08:54:02.612Z,7.20
2022-10-13T08:56:28.996Z,7.03
2022-10-13T08:58:55.535Z,7.18
2022-10-13T09:01:21.912Z,7.95
2022-10-13T09:03:48.261Z,7.43
2022-10-13T09:06:14.676Z,7.78
2022-10-13T09:08:44.510Z,7.82
2022-10-13T09:11:10.915Z,8.35
2022-10-13T09:13:37.260Z,9.35
2022-10-13T09:16:03.642Z,9.95
2022-10-13T09:18:30.287Z,10.38
2022-10-13T09:20:56.565Z,9.88
2022-10-13T09:23:23.184Z,11.57
2022-10-13T09:25:49.839Z,12.10
2022-10-13T09:28:16.264Z,11.98
2022-10-13T09:30:43.038Z,12.10
2022-10-13T09:33:09.583Z,13.23
2022-10-13T09:35:36.025Z,12.43
2022-10-13T09:38:02.407Z,12.52
2022-10-13T09:40:29.112Z,12.45
2022-10-13T09:42:55.644Z,14.05
2022-10-13T09:45:22.013Z,13.93
2022-10-13T09:47:48.424Z,11.77
2022-10-13T09:50:15.115Z,13.00
2022-10-13T09:52:41.488Z,13.50
2022-10-13T09:55:07.867Z,13.93
2022-10-13T09:57:34.248Z,14.40
2022-10-13T10:02:27.475Z,14.32
2022-10-13T10:04:53.944Z,13.65
2022-10-13T10:07:20.482Z,13.55
2022-10-13T10:09:47.270Z,13.70
2022-10-13T10:12:13.607Z,13.55
2022-10-13T10:14:40.203Z,14.20
2022-10-13T10:17:06.798Z,13.65
2022-10-13T10:19:33.231Z,13.07
2022-10-13T10:21:59.732Z,13.65
2022-10-13T10:24:26.750Z,13.55
2022-10-13T10:26:53.144Z,13.63
2022-10-13T10:29:19.832Z,14.65
2022-10-13T10:31:47.217Z,14.18
2022-10-13T10:34:15.468Z,14.43
2022-10-13T10:36:42.315Z,14.80
2022-10-13T10:39:08.726Z,13.60
2022-10-13T10:41:35.188Z,13.98
2022-10-13T10:44:01.841Z,15.00
2022-10-13T10:46:28.138Z,14.57
2022-10-13T10:48:54.617Z,14.35
2022-10-13T10:51:20.948Z,15.07
2022-10-13T10:53:47.629Z,14.07
2022-10-13T10:56:14.018Z,14.75
2022-10-13T10:58:40.640Z,14.50
2022-10-13T11:01:06.993Z,14.73
2022-10-13T11:03:33.625Z,15.27
2022-10-13T11:05:59.979Z,13.73
2022-10-13T11:08:26.522Z,14.68
2022-10-13T11:10:52.918Z,15.20
2022-10-13T11:13:19.535Z,14.90
2022-10-13T11:15:45.920Z,14.00
2022-10-13T11:18:12.289Z,14.40
2022-10-13T11:20:38.899Z,13.57
2022-10-13T11:23:05.458Z,14.90
2022-10-13T11:25:32.944Z,14.77
2022-10-13T11:27:59.335Z,13.70
2022-10-13T11:30:25.735Z,14.32
2022-10-13T11:32:52.224Z,14.43
2022-10-13T11:35:18.585Z,13.95
2022-10-13T11:37:55.699Z,14.13
2022-10-13T11:40:27.218Z,13.88
2022-10-13T11:42:56.893Z,13.38
2022-10-13T11:45:25.616Z,13.82
2022-10-13T11:47:52.228Z,13.52
2022-10-13T11:50:18.790Z,12.98
2022-10-13T11:52:45.122Z,14.02
2022-10-13T11:55:11.588Z,14.38
2022-10-13T11:57:38.016Z,13.60
2022-10-13T12:00:04.439Z,14.20
2022-10-13T12:02:31.877Z,13.63
2022-10-13T12:04:58.372Z,14.75
2022-10-13T12:07:24.903Z,13.75
2022-10-13T12:09:51.314Z,14.23
2022-10-13T12:12:18.267Z,13.38
2022-10-13T12:14:45.204Z,14.75
2022-10-13T12:17:16.106Z,14.45
2022-10-13T12:19:47.809Z,13.82
2022-10-13T12:22:14.161Z,14.02
2022-10-13T12:24:40.493Z,14.40
2022-10-13T12:27:06.774Z,13.95
2022-10-13T12:29:37.179Z,12.82
2022-10-13T12:32:04.169Z,14.25
2022-10-13T12:34:30.611Z,14.00
2022-10-13T12:36:56.925Z,14.77
2022-10-13T12:39:23.293Z,12.70
2022-10-13T12:41:49.630Z,13.70
2022-10-13T12:44:16.187Z,14.38
2022-10-13T12:46:42.769Z,13.63
2022-10-13T12:49:09.099Z,13.63
2022-10-13T12:51:35.463Z,13.68
2022-10-13T12:54:02.029Z,14.13
2022-10-13T12:56:28.478Z,13.77
2022-10-13T12:58:55.154Z,13.88
2022-10-13T13:01:22.341Z,13.20
2022-10-13T13:03:48.755Z,13.32
2022-10-13T13:06:15.173Z,13.88
2022-10-13T13:08:41.500Z,13.10
2022-10-13T13:11:07.874Z,14.13
2022-10-13T13:13:34.216Z,13.48
2022-10-13T13:16:00.558Z,13.40
2022-10-13T13:18:27.155Z,13.30
2022-10-13T13:20:53.544Z,12.77
2022-10-13T13:23:19.921Z,13.27
2022-10-13T13:25:46.350Z,13.13
2022-10-13T13:28:12.881Z,13.20
2022-10-13T13:30:39.334Z,13.40
2022-10-13T13:33:06.795Z,12.65
2022-10-13T13:35:33.309Z,13.32
2022-10-13T13:37:59.724Z,13.30
2022-10-13T13:40:26.347Z,13.68
2022-10-13T13:42:52.965Z,13.30
2022-10-13T13:45:19.384Z,13.45
2022-10-13T13:47:45.765Z,13.32
2022-10-13T13:50:12.093Z,13.52
2022-10-13T13:52:38.571Z,13.93
2022-10-13T13:55:05.429Z,13.60
2022-10-13T13:57:31.794Z,13.55
2022-10-13T13:59:58.148Z,13.05
2022-10-13T14:02:24.487Z,13.25
2022-10-13T14:04:50.868Z,13.52
2022-10-13T14:07:17.360Z,12.68
2022-10-13T14:09:43.945Z,12.55
2022-10-13T14:12:10.325Z,12.90
2022-10-13T14:14:37.590Z,12.80
2022-10-13T14:17:03.974Z,13.40
2022-10-13T14:19:30.452Z,12.80
2022-10-13T14:21:56.831Z,12.55
2022-10-13T14:24:23.364Z,13.27
2022-10-13T14:26:49.711Z,12.70
2022-10-13T14:29:16.146Z,12.48
2022-10-13T14:31:42.690Z,13.00
2022-10-13T14:34:09.153Z,12.77
2022-10-13T14:36:35.772Z,12.45
2022-10-13T14:39:02.168Z,13.40
2022-10-13T14:41:28.585Z,13.18
2022-10-13T14:43:55.040Z,12.73
2022-10-13T14:46:21.684Z,12.52
2022-10-13T14:48:48.167Z,13.80
2022-10-13T14:51:14.544Z,12.55
2022-10-13T14:53:40.918Z,12.57
2022-10-13T14:56:07.207Z,12.10
2022-10-13T14:58:33.524Z,13.40
2022-10-13T15:00:59.939Z,11.93
2022-10-13T15:03:26.434Z,12.15
2022-10-13T15:05:52.767Z,12.88
2022-10-13T15:08:19.181Z,11.93
2022-10-13T15:10:45.719Z,12.65
2022-10-13T15:13:12.188Z,11.70
2022-10-13T15:15:38.731Z,12.23
2022-10-13T15:18:05.270Z,12.98
2022-10-13T15:20:31.666Z,11.65
2022-10-13T15:22:58.083Z,11.70
2022-10-13T15:25:24.731Z,12.60
2022-10-13T15:27:51.230Z,11.63
2022-10-13T15:30:17.784Z,12.20
2022-10-13T15:32:44.228Z,11.98
2022-10-13T15:35:10.833Z,11.65
2022-10-13T15:37:37.264Z,12.57
2022-10-13T15:40:03.600Z,11.75
2022-10-13T15:42:30.106Z,11.82
2022-10-13T15:47:40.705Z,12.70
2022-10-13T15:50:07.234Z,12.02
2022-10-13T15:52:35.250Z,12.68
2022-10-13T15:55:01.649Z,12.57
2022-10-13T15:57:28.048Z,11.73
2022-10-13T15:59:54.455Z,12.82
2022-10-13T16:02:21.079Z,14.07
2022-10-13T16:04:47.642Z,12.50
2022-10-13T16:07:14.801Z,11.32
2022-10-13T16:09:41.207Z,12.50
2022-10-13T16:12:07.471Z,12.20
2022-10-13T16:14:33.811Z,12.52
2022-10-13T16:17:00.237Z,12.80
2022-10-13T16:19:26.887Z,11.95
2022-10-13T16:24:37.476Z,13.05
2022-10-13T16:27:03.981Z,12.50
2022-10-13T16:29:30.483Z,12.50
2022-10-13T16:31:57.015Z,12.07
2022-10-13T16:34:23.594Z,12.38
2022-10-13T16:36:49.911Z,12.82
2022-10-13T16:39:16.326Z,12.73
2022-10-13T16:41:42.713Z,12.73
2022-10-13T16:44:10.119Z,29.75
2022-10-13T16:46:36.828Z,37.53
2022-10-13T16:49:04.519Z,95.13
2022-10-13T16:51:30.851Z,101.57
2022-10-13T16:54:02.960Z,98.57
2022-10-13T16:56:30.490Z,92.97
2022-10-13T16:58:57.131Z,89.97
2022-10-13T17:01:23.490Z,86.30
2022-10-13T17:03:50.966Z,84.97
2022-10-13T17:06:17.294Z,79.13
2022-10-13T17:08:43.812Z,81.20
2022-10-13T17:11:10.100Z,78.65
2022-10-13T17:13:36.629Z,77.30
2022-10-13T17:16:04.077Z,75.63
2022-10-13T17:18:30.994Z,73.18
2022-10-13T17:20:57.301Z,71.70
2022-10-13T17:23:23.668Z,70.10
2022-10-13T17:25:50.167Z,71.13
2022-10-13T17:28:16.667Z,66.75
2022-10-13T17:30:43.736Z,67.20
2022-10-13T17:33:10.203Z,65.90
2022-10-13T17:35:36.464Z,64.20
2022-10-13T17:38:02.957Z,62.38
2022-10-13T17:40:29.371Z,64.43
2022-10-13T17:42:55.941Z,62.92
2022-10-13T17:45:22.393Z,60.13
2022-10-13T17:47:48.790Z,61.13
2022-10-13T17:50:15.423Z,60.63
2022-10-13T17:52:41.765Z,58.30
2022-10-13T17:55:08.155Z,115.35
2022-10-13T17:57:34.488Z,163.70
2022-10-13T18:00:00.874Z,190.93
2022-10-13T18:02:27.503Z,195.95
2022-10-13T18:04:54.282Z,206.25
2022-10-13T18:07:23.994Z,192.93
2022-10-13T18:09:50.316Z,196.07
2022-10-13T18:12:18.278Z,192.32
2022-10-13T18:14:44.652Z,182.55
2022-10-13T18:17:11.149Z,181.43
2022-10-13T18:19:40.287Z,172.43
2022-10-13T18:22:07.003Z,164.82
2022-10-13T18:24:33.302Z,161.80
2022-10-13T18:26:59.727Z,160.02
2022-10-13T18:29:26.188Z,160.38
2022-10-13T18:31:52.568Z,157.93
2022-10-13T18:34:19.059Z,156.52
2022-10-13T18:36:45.727Z,153.13
2022-10-13T18:39:12.065Z,271.80
2022-10-13T18:41:38.526Z,271.30
2022-10-13T18:44:05.036Z,288.50
2022-10-13T18:46:31.627Z,287.70
2022-10-13T18:48:58.581Z,289.75
2022-10-13T18:51:25.058Z,289.25
2022-10-13T18:53:51.460Z,282.15
2022-10-13T18:56:17.813Z,273.38
2022-10-13T18:58:44.331Z,273.75
2022-10-13T19:01:10.820Z,267.65
2022-10-13T19:03:37.277Z,266.83
2022-10-13T19:06:03.776Z,262.48
2022-10-13T19:08:30.166Z,260.67
2022-10-13T19:10:56.796Z,249.93
2022-10-13T19:13:23.205Z,249.00
2022-10-13T19:15:49.830Z,242.48
2022-10-13T19:18:16.300Z,262.73
2022-10-13T19:20:42.727Z,320.52
2022-10-13T19:23:10.075Z,342.73
2022-10-13T19:25:36.431Z,350.60
2022-10-13T19:28:02.808Z,344.05
2022-10-13T19:30:29.145Z,338.77
2022-10-13T19:32:55.496Z,338.60
2022-10-13T19:35:21.834Z,329.27
2022-10-13T19:37:48.204Z,324.77
2022-10-13T19:47:56.503Z,392.77
2022-10-13T19:50:23.002Z,396.77
2022-10-13T19:52:49.687Z,392.98
2022-10-13T19:55:18.045Z,390.13
2022-10-13T19:57:44.561Z,380.52
2022-10-13T20:00:10.912Z,375.63
2022-10-13T20:02:37.348Z,374.20
2022-10-13T20:05:03.826Z,384.77
2022-10-13T20:07:30.227Z,423.48
2022-10-13T20:09:56.871Z,450.13
2022-10-13T20:12:23.449Z,454.33
2022-10-13T20:14:49.909Z,453.48
2022-10-13T20:17:16.543Z,442.25
2022-10-13T20:19:43.783Z,439.70
2022-10-13T20:22:11.019Z,437.38
2022-10-13T20:24:37.809Z,438.00
2022-10-13T20:27:04.668Z,421.80
2022-10-13T20:29:31.127Z,417.67
2022-10-13T20:32:02.256Z,411.00
2022-10-13T20:34:28.708Z,397.35
2022-10-13T20:36:55.192Z,409.85
2022-10-13T20:42:05.785Z,474.77
2022-10-13T20:44:32.448Z,474.55
2022-10-13T20:46:58.924Z,448.63
2022-10-13T20:49:25.688Z,434.55
2022-10-13T20:51:56.029Z,420.55
2022-10-13T20:56:49.063Z,415.40
2022-10-13T20:59:15.542Z,431.77
2022-10-13T21:01:41.989Z,474.40
2022-10-13T21:04:08.413Z,497.85
2022-10-13T21:06:34.852Z,476.52
2022-10-13T21:09:01.257Z,469.88
2022-10-13T21:11:27.739Z,456.80
2022-10-13T21:13:54.299Z,451.45
2022-10-13T21:16:20.707Z,446.23
2022-10-13T21:18:47.098Z,432.15
2022-10-13T21:21:13.556Z,432.65
2022-10-13T21:23:40.013Z,428.17
2022-10-13T21:26:06.619Z,427.48
2022-10-13T21:28:33.044Z,417.50
2022-10-13T21:30:59.614Z,519.88
2022-10-13T21:33:26.063Z,501.88
2022-10-13T21:35:52.406Z,512.08
2022-10-13T21:38:18.891Z,512.03
2022-10-13T21:40:49.338Z,509.38
2022-10-13T21:43:18.015Z,493.55
2022-10-13T21:45:44.362Z,486.05
2022-10-13T21:48:10.836Z,482.75
2022-10-13T21:50:37.116Z,470.65
2022-10-13T21:53:03.564Z,503.92
2022-10-13T21:55:30.914Z,523.97
2022-10-13T21:58:00.579Z,518.70
2022-10-13T22:00:29.383Z,506.88
2022-10-13T22:02:56.171Z,505.80
2022-10-13T22:05:22.566Z,489.00
2022-10-13T22:07:48.975Z,489.15
2022-10-13T22:10:15.451Z,482.20
2022-10-13T22:12:45.096Z,479.42
2022-10-13T22:15:11.538Z,474.23
2022-10-13T22:17:37.881Z,468.00
2022-10-13T22:20:04.153Z,454.92
2022-10-13T22:22:31.187Z,457.55
2022-10-13T22:24:57.609Z,452.25
2022-10-13T22:27:24.018Z,440.50
2022-10-13T22:29:50.502Z,440.85
2022-10-13T22:32:16.832Z,438.02
2022-10-13T22:34:43.235Z,425.98
2022-10-13T22:37:09.696Z,418.67
2022-10-13T22:39:36.159Z,418.80
2022-10-13T22:42:02.567Z,416.02
2022-10-13T22:44:28.936Z,410.85
2022-10-13T22:46:55.288Z,409.13
2022-10-13T22:49:21.885Z,400.73
2022-10-13T22:51:48.366Z,398.23
2022-10-13T22:54:15.001Z,387.65
2022-10-13T22:56:41.778Z,387.25
2022-10-13T22:59:08.204Z,382.88
2022-10-13T23:01:34.586Z,375.92
2022-10-13T23:04:00.939Z,373.65
2022-10-13T23:06:27.390Z,368.00
2022-10-13T23:08:53.751Z,371.02
2022-10-13T23:11:20.465Z,364.60
2022-10-13T23:13:46.762Z,358.67
2022-10-13T23:16:13.133Z,353.25
2022-10-13T23:18:39.467Z,348.13
2022-10-13T23:21:05.878Z,343.35
2022-10-13T23:23:32.353Z,339.55
2022-10-13T23:25:58.895Z,334.27
2022-10-13T23:28:26.287Z,328.67
2022-10-13T23:30:52.688Z,329.50
2022-10-13T23:33:19.018Z,325.42
2022-10-13T23:35:45.371Z,322.83
2022-10-13T23:38:11.703Z,322.13
2022-10-13T23:40:38.080Z,316.55
2022-10-13T23:43:04.468Z,310.98
2022-10-13T23:45:30.929Z,307.30
2022-10-13T23:47:57.295Z,304.77
2022-10-13T23:50:23.647Z,298.70
2022-10-13T23:52:50.025Z,302.85
2022-10-13T23:55:16.347Z,300.05
2022-10-13T23:57:42.691Z,289.23
